Time;durP1;ratioP1;P1;durP2;ratioP2;P2;SDS_P1;SDS_P2;PMS_P1;PMS_P2;Temp;Humidity;BMP_temperature;BMP_pressure;BME280_temperature;BME280_humidity;BME280_pressure;Samples;Min_cycle;Max_cycle;Signal;HPM_P1;HPM_P2
2021/12/03 00:04:11;;;;;;;;;;;2.40;99.90;;;;;;5118384;28;19918;-53
2021/12/03 00:06:40;;;;;;;;;;;2.40;99.90;;;;;;5130459;27;19928;-53
2021/12/03 00:12:10;;;;;;;;;;;2.30;99.90;;;;;;5127465;27;20407;-52
2021/12/03 00:14:37;;;;;;;;;;;2.30;99.90;;;;;;5131750;27;19923;-53
2021/12/03 00:17:04;;;;;;;;;;;2.40;99.90;;;;;;5128365;27;20576;-52
2021/12/03 00:19:31;;;;;;;;;;;2.40;99.90;;;;;;5135123;27;19977;-53
2021/12/03 00:21:59;;;;;;;;;;;2.20;99.90;;;;;;5136302;27;19974;-54
2021/12/03 00:24:26;;;;;;;;;;;2.30;99.90;;;;;;5128037;27;19927;-53
2021/12/03 00:26:53;;;;;;;;;;;2.50;99.90;;;;;;5136962;27;19976;-52
2021/12/03 00:29:19;;;;;;;;;;;2.60;99.90;;;;;;5135805;27;20342;-53
2021/12/03 00:31:46;;;;;;;;;;;2.60;99.90;;;;;;5133212;27;19923;-53
2021/12/03 00:34:13;;;;;;;;;;;2.50;99.90;;;;;;5124626;27;19980;-53
2021/12/03 00:36:40;;;;;;;;;;;2.30;99.90;;;;;;5132673;27;19976;-52
2021/12/03 00:39:08;;;;;;;;;;;2.20;99.90;;;;;;5137263;27;20354;-54
2021/12/03 00:41:42;;;;;;;;;;;2.30;99.90;;;;;;5137574;27;19923;-53
2021/12/03 00:44:08;;;;;;;;;;;2.40;99.90;;;;;;5137660;27;19966;-53
2021/12/03 00:46:35;;;;;;;;;;;2.50;99.90;;;;;;5137859;27;19936;-52
2021/12/03 00:49:02;;;;;;;;;;;2.40;99.90;;;;;;5152202;27;19931;-53
2021/12/03 00:51:29;;;;;;;;;;;2.30;99.90;;;;;;5154625;27;19942;-55
2021/12/03 00:53:56;;;;;;;;;;;2.30;99.90;;;;;;5154854;27;19927;-52
2021/12/03 00:56:24;;;;;;;;;;;2.20;99.90;;;;;;5154795;27;19923;-53
2021/12/03 00:58:50;;;;;;;;;;;2.10;99.90;;;;;;5155230;27;19923;-55
2021/12/03 01:01:17;;;;;;;;;;;2.10;99.90;;;;;;5153952;27;19923;-54
2021/12/03 01:03:44;;;;;;;;;;;2.10;99.90;;;;;;5137537;27;19931;-53
2021/12/03 01:06:11;;;;;;;;;;;2.10;99.90;;;;;;5135724;27;20386;-55
2021/12/03 01:08:38;;;;;;;;;;;2.20;99.90;;;;;;5131299;27;19976;-52
2021/12/03 01:11:05;;;;;;;;;;;2.20;99.90;;;;;;5135722;27;19923;-52
2021/12/03 01:13:33;;;;;;;;;;;2.00;99.90;;;;;;5133431;27;19972;-53
2021/12/03 01:16:20;;;;;;;;;;;2.00;99.90;;;;;;5134317;27;20054;-53
2021/12/03 01:18:47;;;;;;;;;;;1.90;99.90;;;;;;5135676;27;19923;-53
2021/12/03 01:21:15;;;;;;;;;;;2.00;99.90;;;;;;5135756;27;19927;-53
2021/12/03 01:23:41;;;;;;;;;;;2.10;99.90;;;;;;5135255;27;19959;-53
2021/12/03 01:26:09;;;;;;;;;;;2.10;99.90;;;;;;5133558;27;19935;-52
2021/12/03 01:28:39;;;;;;;;;;;2.10;99.90;;;;;;5128822;27;19987;-54
2021/12/03 01:31:06;;;;;;;;;;;2.20;99.90;;;;;;5135207;27;19928;-53
2021/12/03 01:33:33;;;;;;;;;;;2.20;99.90;;;;;;5135095;27;19927;-53
2021/12/03 01:36:00;;;;;;;;;;;2.10;99.90;;;;;;5134859;27;19931;-54
2021/12/03 01:38:27;;;;;;;;;;;2.20;99.90;;;;;;5134606;27;20418;-51
2021/12/03 01:40:54;;;;;;;;;;;2.10;99.90;;;;;;5121903;27;19923;-54
2021/12/03 01:43:24;;;;;;;;;;;2.30;99.90;;;;;;5123168;27;19931;-53
2021/12/03 01:45:54;;;;;;;;;;;2.30;99.90;;;;;;5134945;27;19930;-52
2021/12/03 01:48:20;;;;;;;;;;;2.20;99.90;;;;;;5134631;27;19923;-53
2021/12/03 01:50:48;;;;;;;;;;;2.00;99.90;;;;;;5134840;27;19923;-52
2021/12/03 01:53:16;;;;;;;;;;;1.80;99.90;;;;;;5130794;27;19924;-54
2021/12/03 01:55:44;;;;;;;;;;;1.80;99.90;;;;;;5119668;27;20304;-52
2021/12/03 01:58:11;;;;;;;;;;;2.00;99.90;;;;;;5127136;27;19923;-54
2021/12/03 02:00:39;;;;;;;;;;;2.10;99.90;;;;;;5134303;27;19930;-53
2021/12/03 02:03:08;;;;;;;;;;;2.20;99.90;;;;;;5134604;27;19927;-53
2021/12/03 02:05:35;;;;;;;;;;;2.20;99.90;;;;;;5134414;27;19927;-53
2021/12/03 02:08:02;;;;;;;;;;;2.30;99.90;;;;;;5132027;27;19928;-53
2021/12/03 02:10:28;;;;;;;;;;;2.10;99.90;;;;;;5132764;27;19927;-53
2021/12/03 02:12:56;;;;;;;;;;;2.10;99.90;;;;;;5134278;27;20384;-53
2021/12/03 02:15:23;;;;;;;;;;;2.20;99.90;;;;;;5125342;27;19963;-54
2021/12/03 02:17:49;;;;;;;;;;;2.30;99.90;;;;;;5133985;27;19924;-53
2021/12/03 02:20:18;;;;;;;;;;;2.40;99.90;;;;;;5133779;27;19938;-53
2021/12/03 02:22:47;;;;;;;;;;;2.30;99.90;;;;;;5133901;27;19965;-52
2021/12/03 02:25:19;;;;;;;;;;;2.30;99.90;;;;;;5134423;27;19939;-52
2021/12/03 02:27:46;;;;;;;;;;;2.30;99.90;;;;;;5133836;27;19992;-52
2021/12/03 02:30:13;;;;;;;;;;;2.30;99.90;;;;;;5128956;27;19923;-53
2021/12/03 02:32:40;;;;;;;;;;;2.30;99.90;;;;;;5133122;27;19968;-53
2021/12/03 02:35:08;;;;;;;;;;;2.20;99.90;;;;;;5133203;27;20385;-53
2021/12/03 02:37:35;;;;;;;;;;;2.20;99.90;;;;;;5133319;27;19927;-53
2021/12/03 02:40:04;;;;;;;;;;;2.00;99.90;;;;;;5133460;27;20281;-53
2021/12/03 02:42:31;;;;;;;;;;;1.70;99.90;;;;;;5133383;27;19924;-54
2021/12/03 02:44:58;;;;;;;;;;;1.60;99.90;;;;;;5133544;27;19927;-53
2021/12/03 02:47:24;;;;;;;;;;;1.90;99.90;;;;;;5133330;27;19931;-53
2021/12/03 02:49:51;;;;;;;;;;;2.10;99.90;;;;;;5133990;27;19984;-53
2021/12/03 02:52:18;;;;;;;;;;;2.10;99.90;;;;;;5124176;27;19965;-52
2021/12/03 02:54:45;;;;;;;;;;;2.20;99.90;;;;;;5121386;27;20366;-53
2021/12/03 02:57:13;;;;;;;;;;;2.20;99.90;;;;;;5133728;27;19928;-54
2021/12/03 02:59:40;;;;;;;;;;;2.20;99.90;;;;;;5127136;27;19992;-53
2021/12/03 03:02:07;;;;;;;;;;;2.10;99.90;;;;;;5131386;27;19930;-52
2021/12/03 03:04:33;;;;;;;;;;;2.10;99.90;;;;;;5140660;27;20461;-54
2021/12/03 03:07:00;;;;;;;;;;;2.20;99.90;;;;;;5133243;27;20344;-53
2021/12/03 03:09:27;;;;;;;;;;;2.10;99.90;;;;;;5132366;27;20002;-53
2021/12/03 03:11:54;;;;;;;;;;;2.10;99.90;;;;;;5133247;27;19992;-54
2021/12/03 03:14:22;;;;;;;;;;;2.00;99.90;;;;;;5133076;27;19964;-53
2021/12/03 03:16:49;;;;;;;;;;;2.20;99.90;;;;;;5133797;27;19983;-51
2021/12/03 03:19:17;;;;;;;;;;;2.20;99.90;;;;;;5132854;27;19980;-54
2021/12/03 03:21:44;;;;;;;;;;;2.30;99.90;;;;;;5133149;27;19927;-53
2021/12/03 03:24:12;;;;;;;;;;;2.30;99.90;;;;;;5133091;27;19930;-52
2021/12/03 03:26:39;;;;;;;;;;;2.20;99.90;;;;;;5133152;27;20385;-53
2021/12/03 03:29:07;;;;;;;;;;;2.20;99.90;;;;;;5132249;27;19937;-52
2021/12/03 03:31:36;;;;;;;;;;;2.00;99.90;;;;;;5129312;27;20354;-52
2021/12/03 03:34:04;;;;;;;;;;;2.00;99.90;;;;;;5138340;27;19923;-52
2021/12/03 03:36:32;;;;;;;;;;;2.00;99.90;;;;;;5132755;27;19968;-52
2021/12/03 03:38:58;;;;;;;;;;;2.10;99.90;;;;;;5132843;27;19924;-53
2021/12/03 03:41:25;;;;;;;;;;;2.00;99.90;;;;;;5132774;27;19977;-53
2021/12/03 03:43:52;;;;;;;;;;;2.10;99.90;;;;;;5148392;27;20524;-52
2021/12/03 03:46:19;;;;;;;;;;;2.20;99.90;;;;;;5137185;27;19992;-52
2021/12/03 03:48:47;;;;;;;;;;;2.20;99.90;;;;;;5126514;27;19927;-52
2021/12/03 03:51:14;;;;;;;;;;;2.10;99.90;;;;;;5135360;27;20351;-53
2021/12/03 03:53:41;;;;;;;;;;;2.30;99.90;;;;;;5131141;27;19936;-54
2021/12/03 03:56:08;;;;;;;;;;;2.20;99.90;;;;;;5136209;27;19968;-52
2021/12/03 03:58:37;;;;;;;;;;;2.30;99.90;;;;;;5136534;27;19977;-52
2021/12/03 04:01:04;;;;;;;;;;;2.30;99.90;;;;;;5135689;27;19924;-52
2021/12/03 04:03:31;;;;;;;;;;;2.20;99.90;;;;;;5138005;27;20378;-53
2021/12/03 04:05:59;;;;;;;;;;;2.10;99.90;;;;;;5132516;27;20355;-51
2021/12/03 04:08:28;;;;;;;;;;;2.10;99.90;;;;;;5136439;27;20389;-52
2021/12/03 04:10:55;;;;;;;;;;;2.40;99.90;;;;;;5136759;27;19972;-53
2021/12/03 04:13:22;;;;;;;;;;;2.30;99.90;;;;;;5135344;27;19923;-52
2021/12/03 04:15:49;;;;;;;;;;;2.40;99.90;;;;;;5138456;27;19975;-53
2021/12/03 04:18:16;;;;;;;;;;;2.40;99.90;;;;;;5131289;27;19927;-53
2021/12/03 04:20:42;;;;;;;;;;;2.40;99.90;;;;;;5136486;27;20034;-52
2021/12/03 04:23:12;;;;;;;;;;;2.30;99.90;;;;;;5137954;27;20282;-52
2021/12/03 04:25:39;;;;;;;;;;;2.30;99.90;;;;;;5134818;27;19923;-54
2021/12/03 04:28:06;;;;;;;;;;;2.40;99.90;;;;;;5135370;27;19931;-53
2021/12/03 04:30:32;;;;;;;;;;;2.40;99.90;;;;;;5136376;27;19927;-53
2021/12/03 04:32:59;;;;;;;;;;;2.50;99.90;;;;;;5135640;27;20417;-53
2021/12/03 04:35:28;;;;;;;;;;;2.40;99.90;;;;;;5135484;27;19972;-53
2021/12/03 04:37:55;;;;;;;;;;;2.40;99.90;;;;;;5135940;27;20371;-51
2021/12/03 04:40:23;;;;;;;;;;;2.30;99.90;;;;;;5136123;27;20301;-52
2021/12/03 04:42:50;;;;;;;;;;;2.30;99.90;;;;;;5136248;27;19923;-52
2021/12/03 04:45:19;;;;;;;;;;;2.30;99.90;;;;;;5130545;27;19969;-52
2021/12/03 04:47:46;;;;;;;;;;;2.30;99.90;;;;;;5115467;28;20026;-52
2021/12/03 04:50:13;;;;;;;;;;;2.40;99.90;;;;;;5119797;27;19923;-52
2021/12/03 04:52:40;;;;;;;;;;;2.40;99.90;;;;;;5135412;27;19927;-53
2021/12/03 04:55:08;;;;;;;;;;;2.00;99.90;;;;;;5135045;27;19968;-53
2021/12/03 04:57:36;;;;;;;;;;;2.10;99.90;;;;;;5135685;27;19927;-52
2021/12/03 05:00:04;;;;;;;;;;;1.90;99.90;;;;;;5134566;27;19975;-51
2021/12/03 05:02:31;;;;;;;;;;;1.90;99.90;;;;;;5134915;27;20007;-52
2021/12/03 05:05:02;;;;;;;;;;;2.10;99.90;;;;;;5147788;27;20461;-53
2021/12/03 05:07:31;;;;;;;;;;;2.20;99.90;;;;;;5126471;27;19923;-52
2021/12/03 05:09:58;;;;;;;;;;;2.20;99.90;;;;;;5115201;28;19932;-52
2021/12/03 05:12:24;;;;;;;;;;;2.20;99.90;;;;;;5120004;27;19930;-52
2021/12/03 05:14:53;;;;;;;;;;;2.30;99.90;;;;;;5147707;27;19928;-52
2021/12/03 05:17:20;;;;;;;;;;;2.30;99.90;;;;;;5130428;27;19923;-51
2021/12/03 05:19:46;;;;;;;;;;;2.30;99.90;;;;;;5116650;27;19953;-52
2021/12/03 05:22:13;;;;;;;;;;;2.30;99.90;;;;;;5114595;28;19969;-52
2021/12/03 05:24:40;;;;;;;;;;;2.20;99.90;;;;;;5134681;27;19924;-53
2021/12/03 05:27:07;;;;;;;;;;;2.20;99.90;;;;;;5135112;27;19967;-51
2021/12/03 05:29:34;;;;;;;;;;;2.10;99.90;;;;;;5135156;27;19968;-51
2021/12/03 05:32:03;;;;;;;;;;;2.10;99.90;;;;;;5134401;27;20451;-52
2021/12/03 05:34:30;;;;;;;;;;;2.10;99.90;;;;;;5142973;27;19931;-51
2021/12/03 05:36:57;;;;;;;;;;;2.10;99.90;;;;;;5118541;27;19931;-51
2021/12/03 05:39:23;;;;;;;;;;;2.00;99.90;;;;;;5114491;28;20461;-51
2021/12/03 05:41:50;;;;;;;;;;;2.00;99.90;;;;;;5115134;27;19923;-51
2021/12/03 05:44:17;;;;;;;;;;;1.70;99.90;;;;;;5146675;27;19927;-51
2021/12/03 05:46:44;;;;;;;;;;;1.70;99.90;;;;;;5134295;27;19927;-51
2021/12/03 05:49:12;;;;;;;;;;;1.50;99.90;;;;;;5114406;28;19924;-50
2021/12/03 05:51:39;;;;;;;;;;;1.60;99.90;;;;;;5116684;28;19924;-50
2021/12/03 05:54:05;;;;;;;;;;;1.70;99.90;;;;;;5128297;27;19923;-52
2021/12/03 05:56:32;;;;;;;;;;;1.80;99.90;;;;;;5130779;27;19976;-52
2021/12/03 05:59:00;;;;;;;;;;;1.60;99.90;;;;;;5138157;27;19928;-54
2021/12/03 06:01:27;;;;;;;;;;;1.50;99.90;;;;;;5138023;27;19970;-52
2021/12/03 06:03:53;;;;;;;;;;;1.60;99.90;;;;;;5137937;27;20524;-53
2021/12/03 06:06:22;;;;;;;;;;;1.70;99.90;;;;;;5123729;27;20365;-52
2021/12/03 06:08:49;;;;;;;;;;;1.80;99.90;;;;;;5135098;27;20011;-52
2021/12/03 06:11:16;;;;;;;;;;;1.90;99.90;;;;;;5137571;27;19968;-53
2021/12/03 06:13:43;;;;;;;;;;;1.90;99.90;;;;;;5137722;27;19923;-51
2021/12/03 06:16:10;;;;;;;;;;;2.10;99.90;;;;;;5138262;27;19923;-52
2021/12/03 06:18:37;;;;;;;;;;;2.20;99.90;;;;;;5128749;27;19969;-53
2021/12/03 06:21:08;;;;;;;;;;;2.10;99.90;;;;;;5136313;27;19968;-52
2021/12/03 06:23:36;;;;;;;;;;;2.00;99.90;;;;;;5142796;27;19923;-53
2021/12/03 06:26:04;;;;;;;;;;;1.90;99.90;;;;;;5135915;27;19927;-53
2021/12/03 06:28:31;;;;;;;;;;;1.90;99.90;;;;;;5134667;27;20393;-52
2021/12/03 06:30:58;;;;;;;;;;;1.80;99.90;;;;;;5132191;27;20441;-52
2021/12/03 06:33:25;;;;;;;;;;;1.80;99.90;;;;;;5133870;27;19923;-52
2021/12/03 06:35:52;;;;;;;;;;;2.00;99.90;;;;;;5134109;27;20370;-54
2021/12/03 06:38:19;;;;;;;;;;;1.90;99.90;;;;;;5134374;27;19948;-53
2021/12/03 06:40:48;;;;;;;;;;;1.90;99.90;;;;;;5133591;27;19968;-54
2021/12/03 06:43:15;;;;;;;;;;;2.00;99.90;;;;;;5133410;27;19923;-52
2021/12/03 06:45:42;;;;;;;;;;;2.00;99.90;;;;;;5121738;27;19923;-54
2021/12/03 06:48:09;;;;;;;;;;;1.90;99.90;;;;;;5121076;27;19923;-52
2021/12/03 06:50:36;;;;;;;;;;;2.10;99.90;;;;;;5122174;27;20079;-52
2021/12/03 06:53:04;;;;;;;;;;;2.10;99.90;;;;;;5128763;27;19923;-52
2021/12/03 06:55:38;;;;;;;;;;;2.00;99.90;;;;;;5128816;27;19923;-52
2021/12/03 07:01:10;;;;;;;;;;;2.00;99.90;;;;;;5122075;27;19980;-52
2021/12/03 07:03:36;;;;;;;;;;;2.00;99.90;;;;;;5123137;27;19934;-53
2021/12/03 07:06:03;;;;;;;;;;;2.00;99.90;;;;;;5133117;27;19927;-52
2021/12/03 07:08:30;;;;;;;;;;;2.10;99.90;;;;;;5133480;27;20112;-52
2021/12/03 07:10:57;;;;;;;;;;;2.10;99.90;;;;;;5132744;27;19972;-52
2021/12/03 07:13:25;;;;;;;;;;;2.20;99.90;;;;;;5133540;27;19979;-52
2021/12/03 07:15:52;;;;;;;;;;;2.10;99.90;;;;;;5133252;27;19928;-51
2021/12/03 07:18:20;;;;;;;;;;;2.10;99.90;;;;;;5132207;27;19923;-53
2021/12/03 07:20:47;;;;;;;;;;;2.20;99.90;;;;;;5115841;27;20393;-55
2021/12/03 07:23:14;;;;;;;;;;;2.10;99.90;;;;;;5128114;27;19923;-52
2021/12/03 07:25:41;;;;;;;;;;;2.20;99.90;;;;;;5129183;27;19930;-54
2021/12/03 07:28:08;;;;;;;;;;;2.30;99.90;;;;;;5133611;27;19976;-52
2021/12/03 07:30:35;;;;;;;;;;;2.40;99.90;;;;;;5132455;27;19953;-52
2021/12/03 07:33:02;;;;;;;;;;;2.30;99.90;;;;;;5133415;27;19923;-52
2021/12/03 07:35:30;;;;;;;;;;;2.30;99.90;;;;;;5133139;27;19927;-51
2021/12/03 07:37:57;;;;;;;;;;;2.30;99.90;;;;;;5133282;27;20329;-53
2021/12/03 07:40:24;;;;;;;;;;;2.40;99.90;;;;;;5132980;27;20397;-52
2021/12/03 07:42:51;;;;;;;;;;;2.50;99.90;;;;;;5131178;27;19972;-52
2021/12/03 07:45:17;;;;;;;;;;;2.50;99.90;;;;;;5128543;27;19928;-53
2021/12/03 07:47:44;;;;;;;;;;;2.40;99.90;;;;;;5112650;28;19927;-51
2021/12/03 07:50:11;;;;;;;;;;;2.50;99.90;;;;;;5124881;28;19968;-52
2021/12/03 07:52:39;;;;;;;;;;;2.50;99.90;;;;;;5132637;27;19991;-51
2021/12/03 07:55:07;;;;;;;;;;;2.60;99.90;;;;;;5133128;28;19923;-51
2021/12/03 07:57:34;;;;;;;;;;;2.70;99.90;;;;;;5133009;27;20327;-53
2021/12/03 08:00:00;;;;;;;;;;;2.80;99.90;;;;;;5133097;27;20346;-53
2021/12/03 08:02:27;;;;;;;;;;;2.80;99.90;;;;;;5132642;27;20358;-52
2021/12/03 08:04:54;;;;;;;;;;;2.70;99.90;;;;;;5132230;27;20472;-52
2021/12/03 08:07:21;;;;;;;;;;;2.90;99.90;;;;;;5132728;27;19976;-52
2021/12/03 08:09:49;;;;;;;;;;;2.90;99.90;;;;;;5131094;27;19950;-52
2021/12/03 08:12:16;;;;;;;;;;;3.00;99.90;;;;;;5132497;27;19923;-52
2021/12/03 08:14:43;;;;;;;;;;;3.10;99.90;;;;;;5132584;27;19968;-53
2021/12/03 08:17:10;;;;;;;;;;;3.10;99.90;;;;;;5132211;27;19931;-53
2021/12/03 08:19:38;;;;;;;;;;;3.30;99.90;;;;;;5132323;27;19928;-53
2021/12/03 08:22:05;;;;;;;;;;;3.40;99.90;;;;;;5132135;27;20388;-53
2021/12/03 08:24:32;;;;;;;;;;;3.40;99.90;;;;;;5132212;27;19938;-52
2021/12/03 08:27:01;;;;;;;;;;;3.70;99.90;;;;;;5132849;27;20324;-53
2021/12/03 08:29:29;;;;;;;;;;;3.90;99.90;;;;;;5132389;27;19927;-52
2021/12/03 08:31:56;;;;;;;;;;;3.90;99.90;;;;;;5132125;27;20274;-52
2021/12/03 08:34:23;;;;;;;;;;;4.30;99.90;;;;;;5132399;27;20349;-52
2021/12/03 08:36:50;;;;;;;;;;;4.50;99.90;;;;;;5135079;27;19967;-52
2021/12/03 08:39:19;;;;;;;;;;;4.80;99.90;;;;;;5136195;27;20183;-52
2021/12/03 08:41:47;;;;;;;;;;;5.00;99.90;;;;;;5135939;27;19976;-53
2021/12/03 08:44:16;;;;;;;;;;;5.10;99.90;;;;;;5136211;27;19972;-53
2021/12/03 08:46:46;;;;;;;;;;;5.10;99.90;;;;;;5136234;27;19928;-54
2021/12/03 08:49:16;;;;;;;;;;;5.20;99.90;;;;;;5135939;27;20674;-54
2021/12/03 08:52:21;;;;;;;;;;;5.30;99.90;;;;;;5135580;27;19931;-52
2021/12/03 08:54:51;;;;;;;;;;;5.40;99.90;;;;;;5136116;27;19923;-52
2021/12/03 08:57:19;;;;;;;;;;;5.30;99.90;;;;;;5135749;27;19923;-53
2021/12/03 08:59:47;;;;;;;;;;;5.30;99.90;;;;;;5136118;27;19923;-55
2021/12/03 09:02:14;;;;;;;;;;;5.10;99.90;;;;;;5134718;27;20351;-53
2021/12/03 09:04:41;;;;;;;;;;;4.60;99.90;;;;;;5135835;27;19946;-53
2021/12/03 09:07:08;;;;;;;;;;;4.70;99.90;;;;;;5136042;27;19947;-53
2021/12/03 09:09:34;;;;;;;;;;;5.00;99.90;;;;;;5135324;27;19927;-52
2021/12/03 09:12:01;;;;;;;;;;;4.90;99.90;;;;;;5135631;27;19928;-53
2021/12/03 09:14:32;;;;;;;;;;;4.90;99.90;;;;;;5136145;27;19976;-53
2021/12/03 09:17:09;;;;;;;;;;;4.70;99.90;;;;;;5135760;27;20006;-52
2021/12/03 09:19:39;;;;;;;;;;;4.60;99.90;;;;;;5135085;27;19924;-53
2021/12/03 09:22:07;;;;;;;;;;;4.10;99.90;;;;;;5135229;27;19984;-53
2021/12/03 09:24:36;;;;;;;;;;;4.00;99.90;;;;;;5135633;27;19923;-53
2021/12/03 09:27:03;;;;;;;;;;;4.00;99.90;;;;;;5135386;27;19924;-53
2021/12/03 09:29:32;;;;;;;;;;;4.00;99.90;;;;;;5134890;27;20429;-53
2021/12/03 09:31:59;;;;;;;;;;;4.00;99.90;;;;;;5134922;27;20319;-52
2021/12/03 09:34:30;;;;;;;;;;;4.20;99.90;;;;;;5134899;27;19930;-53
2021/12/03 09:36:56;;;;;;;;;;;4.10;99.90;;;;;;5134832;27;19930;-52
2021/12/03 09:39:24;;;;;;;;;;;4.20;99.90;;;;;;5134203;27;19924;-53
2021/12/03 09:41:52;;;;;;;;;;;4.60;99.90;;;;;;5134260;27;20384;-53
2021/12/03 09:44:19;;;;;;;;;;;5.20;99.90;;;;;;5134773;27;19976;-54
2021/12/03 09:46:46;;;;;;;;;;;5.80;99.90;;;;;;5127318;27;19969;-54
2021/12/03 09:49:32;;;;;;;;;;;5.80;99.90;;;;;;5133537;27;20389;-55
2021/12/03 09:52:13;;;;;;;;;;;5.40;99.90;;;;;;5133416;27;19933;-53
2021/12/03 09:54:42;;;;;;;;;;;4.80;99.90;;;;;;5134536;27;19924;-53
2021/12/03 09:57:12;;;;;;;;;;;4.50;99.90;;;;;;5153045;27;20354;-53
2021/12/03 10:02:48;;;;;;;;;;;4.10;99.90;;;;;;5132414;27;19920;-54
2021/12/03 10:13:36;;;;;;;;;;;5.50;99.90;;;;;;5134712;27;19926;-55
2021/12/03 10:16:09;;;;;;;;;;;6.00;99.90;;;;;;5134039;27;19923;-54
2021/12/03 10:18:48;;;;;;;;;;;6.30;99.90;;;;;;5134037;27;20019;-54
2021/12/03 10:21:33;;;;;;;;;;;5.90;99.90;;;;;;5134528;27;19923;-55
2021/12/03 10:30:12;;;;;;;;;;;6.10;99.90;;;;;;5070445;28;19927;-52
2021/12/03 10:43:49;;;;;;;;;;;4.90;99.90;;;;;;5130228;27;19924;-54
2021/12/03 10:46:29;;;;;;;;;;;5.00;99.90;;;;;;5119744;27;20017;-54
2021/12/03 10:49:01;;;;;;;;;;;5.00;99.90;;;;;;5134035;27;19924;-53
2021/12/03 10:51:37;;;;;;;;;;;5.10;99.90;;;;;;5133835;27;20388;-53
2021/12/03 10:54:10;;;;;;;;;;;5.20;99.90;;;;;;5134706;27;19923;-53
2021/12/03 10:56:59;;;;;;;;;;;5.20;99.90;;;;;;5139573;27;19923;-52
2021/12/03 11:08:13;;;;;;;;;;;5.30;99.90;;;;;;5148340;27;19920;-55
2021/12/03 11:11:21;;;;;;;;;;;5.40;99.90;;;;;;5141512;27;19927;-53
2021/12/03 11:34:21;;;;;;;;;;;5.20;99.90;;;;;;5071878;27;19935;-54
2021/12/03 11:46:10;;;;;;;;;;;4.90;99.90;;;;;;5131272;28;20028;-53
2021/12/03 12:35:43;;;;;;;;;;;5.00;99.90;;;;;;5135953;27;19953;-52
2021/12/03 13:18:28;;;;;;;;;;;4.90;99.90;;;;;;5126832;27;19923;-54
2021/12/03 13:24:27;;;;;;;;;;;4.80;99.90;;;;;;5135554;27;19924;-53
2021/12/03 14:36:51;;;;;;;;;;;4.10;99.90;;;;;;5134035;27;19953;-54
2021/12/03 14:45:14;;;;;;;;;;;4.20;99.90;;;;;;5108395;27;19966;-54
2021/12/03 14:48:07;;;;;;;;;;;4.10;99.90;;;;;;5134037;27;19963;-54
2021/12/03 14:50:57;;;;;;;;;;;4.00;99.90;;;;;;5133653;27;19979;-53
2021/12/03 14:56:16;;;;;;;;;;;3.90;99.90;;;;;;5129098;27;19923;-55
2021/12/03 14:58:49;;;;;;;;;;;3.80;99.90;;;;;;5133238;27;20472;-54
2021/12/03 15:01:23;;;;;;;;;;;3.90;99.90;;;;;;5133582;27;20014;-54
2021/12/03 15:04:21;;;;;;;;;;;3.80;99.90;;;;;;5133492;27;19930;-54
2021/12/03 15:07:04;;;;;;;;;;;3.60;99.90;;;;;;5133569;27;19927;-55
2021/12/03 15:09:33;;;;;;;;;;;3.70;99.90;;;;;;5131949;27;19931;-55
2021/12/03 15:12:24;;;;;;;;;;;3.60;99.90;;;;;;5132944;27;20014;-54
2021/12/03 15:23:35;;;;;;;;;;;3.40;99.90;;;;;;5132626;27;19921;-54
2021/12/03 15:26:07;;;;;;;;;;;3.50;99.90;;;;;;5132661;27;19924;-54
2021/12/03 15:34:04;;;;;;;;;;;3.30;99.90;;;;;;5119707;27;19923;-53
2021/12/03 15:36:46;;;;;;;;;;;3.00;99.90;;;;;;5133123;27;19934;-53
2021/12/03 16:04:13;;;;;;;;;;;2.80;99.90;;;;;;5073624;28;19963;-53
2021/12/03 16:06:52;;;;;;;;;;;2.60;99.90;;;;;;5073614;28;20350;-53
2021/12/03 16:09:45;;;;;;;;;;;2.70;99.90;;;;;;5097598;27;20396;-54
2021/12/03 16:12:22;;;;;;;;;;;3.00;99.90;;;;;;5116433;28;19931;-53
2021/12/03 16:15:00;;;;;;;;;;;2.90;99.90;;;;;;5125200;27;19966;-53
2021/12/03 16:17:42;;;;;;;;;;;2.90;99.90;;;;;;5136885;27;19973;-52
2021/12/03 16:45:17;;;;;;;;;;;2.50;99.90;;;;;;5116927;27;19965;-52
2021/12/03 16:53:29;;;;;;;;;;;2.20;99.90;;;;;;5067716;28;20459;-53
2021/12/03 16:56:03;;;;;;;;;;;2.10;99.90;;;;;;5117228;27;20018;-52
2021/12/03 16:58:29;;;;;;;;;;;2.10;99.90;;;;;;5136072;27;19976;-53
2021/12/03 17:01:04;;;;;;;;;;;2.10;99.90;;;;;;5135692;27;20385;-54
2021/12/03 17:03:36;;;;;;;;;;;1.90;99.90;;;;;;5135777;27;19977;-53
2021/12/03 17:47:50;;;;;;;;;;;1.80;99.90;;;;;;5099911;27;20479;-54
2021/12/03 17:50:41;;;;;;;;;;;1.90;99.90;;;;;;5128309;27;19923;-52
2021/12/03 17:56:12;;;;;;;;;;;1.80;99.90;;;;;;5091756;28;19924;-51
2021/12/03 17:58:41;;;;;;;;;;;1.70;99.90;;;;;;5088428;28;19929;-51
2021/12/03 18:01:13;;;;;;;;;;;1.80;99.90;;;;;;5112433;27;19945;-52
2021/12/03 18:03:47;;;;;;;;;;;1.80;99.90;;;;;;5151500;22;19924;-50
2021/12/03 18:09:06;;;;;;;;;;;1.70;99.90;;;;;;5118555;27;19930;-47
2021/12/03 18:53:24;;;;;;;;;;;1.70;99.90;;;;;;5101762;28;19927;-48
2021/12/03 18:55:54;;;;;;;;;;;1.50;99.90;;;;;;5114539;27;19986;-48
2021/12/03 18:58:24;;;;;;;;;;;1.30;99.90;;;;;;5112480;28;19967;-47
2021/12/03 19:00:51;;;;;;;;;;;1.50;99.90;;;;;;5112892;28;19973;-48
2021/12/03 19:03:24;;;;;;;;;;;1.70;99.90;;;;;;5112635;28;19924;-46
2021/12/03 19:06:00;;;;;;;;;;;1.40;99.90;;;;;;5112370;28;19924;-48
2021/12/03 19:08:35;;;;;;;;;;;1.40;99.90;;;;;;5111450;28;19979;-49
2021/12/03 19:11:07;;;;;;;;;;;1.60;99.90;;;;;;5112024;28;19924;-48
2021/12/03 19:13:38;;;;;;;;;;;1.80;99.90;;;;;;5112810;28;19931;-48
2021/12/03 19:16:07;;;;;;;;;;;1.80;99.90;;;;;;5112739;28;19931;-47
2021/12/03 19:18:33;;;;;;;;;;;1.90;99.90;;;;;;5112431;28;19923;-46
2021/12/03 19:21:06;;;;;;;;;;;1.80;99.90;;;;;;5112489;28;20397;-46
2021/12/03 19:23:32;;;;;;;;;;;1.70;99.90;;;;;;5112654;28;19977;-46
2021/12/03 19:25:59;;;;;;;;;;;1.80;99.90;;;;;;5112530;28;19997;-48
2021/12/03 19:28:28;;;;;;;;;;;1.70;99.90;;;;;;5112579;28;19931;-47
2021/12/03 19:30:56;;;;;;;;;;;1.80;99.90;;;;;;5112409;28;19924;-47
2021/12/03 19:33:23;;;;;;;;;;;1.80;99.90;;;;;;5112534;28;19934;-49
2021/12/03 19:35:50;;;;;;;;;;;1.90;99.90;;;;;;5108445;28;19932;-47
2021/12/03 19:38:18;;;;;;;;;;;1.90;99.90;;;;;;5103314;28;20394;-47
2021/12/03 19:40:52;;;;;;;;;;;1.80;99.90;;;;;;5103275;28;19924;-47
2021/12/03 19:43:25;;;;;;;;;;;1.80;99.90;;;;;;5111629;28;19930;-48
2021/12/03 19:45:58;;;;;;;;;;;1.60;99.90;;;;;;5111042;28;19928;-48
2021/12/03 19:48:33;;;;;;;;;;;1.70;99.90;;;;;;5097002;28;20359;-46
2021/12/03 19:51:00;;;;;;;;;;;1.80;99.90;;;;;;5095988;28;19928;-46
2021/12/03 19:53:28;;;;;;;;;;;1.90;99.90;;;;;;5108558;28;19930;-46
2021/12/03 19:55:55;;;;;;;;;;;1.90;99.90;;;;;;5112432;28;19924;-46
2021/12/03 19:58:22;;;;;;;;;;;1.80;99.90;;;;;;5111709;28;20439;-45
2021/12/03 20:00:50;;;;;;;;;;;1.80;99.90;;;;;;5104341;28;20454;-45
2021/12/03 20:03:18;;;;;;;;;;;1.80;99.90;;;;;;5111127;28;19924;-47
2021/12/03 20:05:45;;;;;;;;;;;1.90;99.90;;;;;;5112348;28;20378;-46
2021/12/03 20:08:12;;;;;;;;;;;1.90;99.90;;;;;;5112417;28;19923;-46
2021/12/03 20:10:40;;;;;;;;;;;1.70;99.90;;;;;;5112100;28;19924;-45
2021/12/03 20:13:09;;;;;;;;;;;1.60;99.90;;;;;;5111937;28;20441;-47
2021/12/03 20:15:39;;;;;;;;;;;1.70;99.90;;;;;;5111936;28;19927;-45
2021/12/03 20:18:12;;;;;;;;;;;1.60;99.90;;;;;;5107243;28;20023;-46
2021/12/03 20:20:41;;;;;;;;;;;1.70;99.90;;;;;;5110253;28;19924;-46
2021/12/03 20:23:12;;;;;;;;;;;1.60;99.90;;;;;;5096751;28;19958;-46
2021/12/03 20:28:38;;;;;;;;;;;1.80;99.90;;;;;;5030281;28;19928;-46
2021/12/03 20:31:07;;;;;;;;;;;1.90;99.90;;;;;;5091731;28;19980;-45
2021/12/03 20:36:42;;;;;;;;;;;2.00;99.90;;;;;;5125063;27;19912;-48
2021/12/03 20:39:14;;;;;;;;;;;2.10;99.90;;;;;;5107731;28;19924;-48
2021/12/03 20:41:45;;;;;;;;;;;1.90;99.90;;;;;;5093622;28;20295;-48
2021/12/03 20:44:26;;;;;;;;;;;2.10;99.90;;;;;;5098578;28;20305;-47
2021/12/03 20:47:03;;;;;;;;;;;2.10;99.90;;;;;;5109018;28;19950;-48
2021/12/03 20:49:43;;;;;;;;;;;2.00;99.90;;;;;;5109037;28;20015;-48
2021/12/03 20:52:31;;;;;;;;;;;2.10;99.90;;;;;;5100820;28;19978;-48
2021/12/03 21:08:52;;;;;;;;;;;2.20;99.90;;;;;;5109479;28;19930;-48
2021/12/03 21:11:22;;;;;;;;;;;2.10;99.90;;;;;;5108965;28;19971;-48
2021/12/03 21:13:50;;;;;;;;;;;2.10;99.90;;;;;;5108993;28;19928;-47
2021/12/03 21:16:42;;;;;;;;;;;2.10;99.90;;;;;;5109377;28;19924;-48
2021/12/03 21:19:27;;;;;;;;;;;2.20;99.90;;;;;;5109097;28;19931;-47
2021/12/03 21:21:57;;;;;;;;;;;2.20;99.90;;;;;;5108942;28;19930;-48
2021/12/03 21:24:32;;;;;;;;;;;2.40;99.90;;;;;;5108904;28;19928;-48
2021/12/03 21:27:02;;;;;;;;;;;2.50;99.90;;;;;;5102680;28;19924;-47
2021/12/03 21:29:40;;;;;;;;;;;2.60;99.90;;;;;;5108745;28;19931;-47
2021/12/03 21:32:17;;;;;;;;;;;2.40;99.90;;;;;;5100039;28;19967;-47
2021/12/03 21:40:16;;;;;;;;;;;2.40;99.90;;;;;;5077679;28;19921;-47
2021/12/03 21:42:43;;;;;;;;;;;2.40;99.90;;;;;;5088335;28;19951;-46
2021/12/03 21:45:10;;;;;;;;;;;2.50;99.90;;;;;;5099407;28;19924;-47
2021/12/03 21:47:37;;;;;;;;;;;2.50;99.90;;;;;;5096061;28;19924;-47
2021/12/03 21:50:04;;;;;;;;;;;2.50;99.90;;;;;;5087330;28;19931;-45
2021/12/03 21:52:31;;;;;;;;;;;2.60;99.90;;;;;;5084259;28;19983;-46
2021/12/03 21:54:57;;;;;;;;;;;2.50;99.90;;;;;;5086902;28;19977;-47